x

Galveston,tx - 22 Nm East Of Galveston, Tx (42035) Wave Buoy

8:50am - Mon 22nd Sep 2014 All times are CDT. -5 hours from GMT.

  • Sig Wave height 2.0ft
  • Swell Direction
  • Peak Period 5s
  • Average Period 5s
  • Wind
    7mph
  • Sea Temp 83°f
  • Air Temp 82°f
  • Sea Pressure 1017.5mb
  • Galveston,tx -  22 Nm East Of Galveston, Tx
  • Galveston,tx -  22 Nm East Of Galveston, Tx

More Historic Weather Station data

Upgrade to MSW Pro to gain access to the past 30 days of data for over 8000 Wavebouys and Weather Stations around the globe.

Join Pro

Comparision Forecast

View Surf forecast
   
Mon 09/22 8:50am 2ft 5s 5s 7
mph
1017.5mb 83f 82f
7:50am 2ft 5s 5s 4 7 mph 1017.2mb 83f 82f
6:50am 2ft 5s 5s 7
mph
1016.9mb 83f 81f
5:50am 2ft 6s 5s 7 9 mph 1016.3mb 83f 82f
4:50am 2ft 6s 5s 4 7 mph 1016.1mb 83f 82f
3:50am 2.5ft 5s 5s 4
mph
1016mb 83f 82f
2:50am 2.5ft 5s 5s 7
mph
1016.2mb 83f 82f
1:50am 2.5ft 5s 5s 7 9 mph 1016.1mb 84f 82f
12:50am 2.5ft 6s 5s 7 9 mph 1016.1mb 84f 83f
Sun 09/21 11:50pm 2.5ft 6s 5s 9
mph
1016.1mb 83f 83f
10:50pm 2.5ft 6s 5s 7
mph
1015.9mb 83f 83f
9:50pm 2.5ft 5s 5s 7
mph
1015.8mb 83f 83f
8:50pm 2.5ft 6s 5s 7 9 mph 1015.4mb 84f 83f
7:50pm 2.5ft 5s 4s 9
mph
1014.9mb 84f 83f
6:50pm 2.5ft 6s 5s 11 13 mph 1014.1mb 84f 83f
5:50pm 3ft 5s 4s 13
mph
1014.2mb 84f 83f
4:50pm 3ft 6s 4s 13 16 mph 1014.4mb 84f 83f
3:50pm 3ft 5s 4s 13 16 mph 1014.8mb 84f 83f
2:50pm 3.5ft 6s 4s 13 18 mph 1015.5mb 84f 82f
1:50pm 3.5ft 5s 4s 16 18 mph 1015.9mb 84f 82f
12:50pm 3.5ft 6s 4s 16 18 mph 1016.6mb 84f 82f
11:50am 3.5ft 5s 4s 16 18 mph 1016.7mb 83f 82f
10:50am 3.5ft 6s 4s 18 20 mph 1016.4mb 83f 82f
9:50am 4ft 5s 4s 18 20 mph 1016mb 83f 82f
8:50am 4ft 6s 4s 18 20 mph 1015.7mb 83f 82f
7:50am 4ft 6s 4s 18 22 mph 1015.2mb 83f 82f
6:50am 4ft 6s 4s 20 22 mph 1014.4mb 83f 82f
5:50am 4ft 5s 4s 18 22 mph 1014mb 83f 82f
4:50am 4.5ft 6s 4s 18 22 mph 1013.6mb 83f 83f
3:50am 4ft 6s 4s 18 20 mph 1013.4mb 83f 83f
2:50am 4.5ft 5s 4s 16 20 mph 1013.4mb 83f 83f
1:50am 4ft 6s 4s 20 22 mph 1013.2mb 83f 83f
12:50am 4.5ft 6s 4s 18 20 mph 1013.4mb 83f 83f
Sat 09/20 11:50pm 4ft 6s 4s 18 20 mph 1013.6mb 83f 83f
10:50pm 4ft 5s 4s 16 20 mph 1013.9mb 83f 83f
9:50pm 3.5ft 6s 4s 16 18 mph 1013.8mb 83f 83f
8:50pm 3.5ft 6s 4s 16 18 mph 1013.2mb 83f 83f
7:50pm 3.5ft 5s 4s 18 20 mph 1012.5mb 83f 83f
6:50pm 3.5ft 6s 4s 16 20 mph 1012mb 84f 83f
5:50pm 3.5ft 4s 4s 16 20 mph 1012.1mb 84f 83f
4:50pm 3.5ft 5s 4s 18 20 mph 1012.1mb 84f 82f
3:50pm 3.5ft 5s 4s 18 20 mph 1012.4mb 84f 82f
2:50pm 3.5ft 6s 4s 18 22 mph 1012.5mb 84f 82f
1:50pm 3.5ft 5s 4s 18 20 mph 1013.3mb 84f 82f
12:50pm 3.5ft 6s 4s 18 20 mph 1013.8mb 84f 81f
11:50am 4ft 5s 4s 18 20 mph 1013.7mb 84f 81f
10:50am 4ft 5s 4s 18 22 mph 1013.8mb 84f 81f
9:50am 4ft 5s 4s 18 20 mph 1013.4mb 84f 81f
8:50am 3.5ft 6s 4s 18 22 mph 1012.9mb 83f 81f
7:50am 3.5ft 5s 4s 18 22 mph 1012.7mb 83f 82f
6:50am 3.5ft 6s 4s 16 18 mph 1012.2mb 83f 81f
5:50am 3.5ft 6s 4s 13 16 mph 1011.9mb 83f 81f
4:50am 3.5ft 5s 4s 16 18 mph 1011.5mb 83f 80f
3:50am 3.5ft 5s 4s 13 16 mph 1011.7mb 83f 82f
2:50am 4ft 5s 4s 13 16 mph 1012mb 83f 82f
1:50am 3.5ft 5s 4s 16 20 mph 1011.9mb 83f 82f
12:50am 3.5ft 4s 4s 18 22 mph 1012mb 83f 82f
Fri 09/19 11:50pm 3ft 4s 4s 20 22 mph 1012.1mb 83f 82f
10:50pm 2.5ft 4s 4s 20 22 mph 1012.2mb 83f 82f
9:50pm 2.5ft 3s 3s 18 22 mph 1012mb 83f 81f
8:50pm 1.6ft 5s 3s 20 22 mph 1011.7mb 83f 81f
7:50pm 2ft 3s 3s 16
mph
1011.5mb 83f 80f
6:50pm 1.6ft 6s 3s 16 18 mph 1011.3mb 83f 80f
5:50pm 1.3ft 5s 4s 13 16 mph 1011.4mb 83f 80f
4:50pm 1.3ft 5s 4s 9 11 mph 1011.6mb 83f 79f
3:50pm 1.6ft 4s 4s 11
mph
1011.6mb 83f 79f
2:50pm 1.6ft 5s 4s 9 11 mph 1012mb 83f 79f
1:50pm 1.6ft 5s 4s 4
mph
1012.8mb 82f 79f
12:50pm 1.6ft 4s 4s 2
mph
1012.8mb 82f 78f
11:50am 1.6ft 4s 4s 2 4 mph 1013.4mb 82f 77f
10:50am 1.6ft 5s 4s 4
mph
1013.5mb 82f 76f
9:50am 1.6ft 4s 4s 2 4 mph 1013.8mb 82f 76f
8:50am 1.6ft 4s 4s 2 4 mph 1013.2mb 82f 75f
7:50am 1.6ft 4s 4s 7 11 mph 1012.4mb 83f 75f
6:50am 1.6ft 5s 3s 9 11 mph 1011.3mb 83f 78f
5:50am 1.3ft 4s 4s 13 16 mph 1010.7mb 83f 80f
4:50am 1.3ft 5s 4s 11 13 mph 1010.3mb 84f 81f
3:50am 1.3ft 5s 4s 9 11 mph 1010.8mb 84f 81f
2:50am 1.6ft 5s 3s 11 13 mph 1011.4mb 83f 81f
1:50am 1.6ft 4s 4s 11 13 mph 1011.4mb 84f 81f
12:50am 1.6ft 5s 3s 11 13 mph 1011.5mb 83f 80f
Thu 09/18 11:50pm 1.6ft 5s 3s 11 13 mph 1011.4mb 83f 80f
10:50pm 1.3ft 4s 3s 13 16 mph 1011.3mb 83f 80f
9:50pm 1.3ft 5s 4s 11 16 mph 1011mb 83f 79f
8:50pm 1.3ft 5s 4s 11 13 mph 1011.1mb 83f 79f
7:50pm 1.3ft 4s 4s 9 11 mph 1010.9mb 83f 78f
6:50pm 1.3ft 4s 4s 9 11 mph 1011.3mb 83f 78f
5:50pm 1.3ft 4s 4s 7 9 mph 1011.6mb 83f 77f
4:50pm 1.6ft 3s 4s 4 7 mph 1011.4mb 83f 76f
3:50pm 2ft 3s 4s 9 11 mph 1011.2mb 83f 75f